Detalii statie AGROMEC VLAD TEPES [00001989]

Toti senzorii

Date Temperatura solului [C]Precipitatii [mm]Voltaj baterie [mV]Leaf Wetness [Min]HC Air temperature [C]HC Relative humidity [%]Punctul de roua [C]
medieminmaxsumaultimatimpmedieminmaxmediemediemin
2017-08-14 20:00:00 26.5 26.4 27.2 0 6650 21.65 21.42 22.04 9.88 -12 -15.5
2017-08-14 21:00:00 26.2 26.1 26.5 0 6660 22.12 22.03 22.3 8.07 -14.5 -17.1
2017-08-14 22:00:00 26 25.9 26.2 0 6660 21.57 20.75 22.03 9.12 -13.4 -19.2
2017-08-14 23:00:00 25.8 25.7 26 0 6668 20.34 20.11 20.69 10.51 -12.2 -16.5
2017-08-15 00:00:00 25.6 25.5 25.8 0 6640 19.74 19.5 20.02 11.62 -11.5 -15.3
2017-08-15 01:00:00 25.4 25.2 26 0 6660 19.67 19.34 19.83 12.35 -10.7 -13.9
2017-08-15 02:00:00 25.2 25 25.8 0 6640 18.68 18.26 19.22 19.26 -5.5 -7.3
2017-08-15 03:00:00 24.9 24.7 25.2 0 6660 19.42 19.25 19.68 15.77 -7.7 -11.8
2017-08-15 04:00:00 24.7 24.6 24.9 0 6630 19.26 18.94 19.38 18.8 -5.2 -7.1
2017-08-15 05:00:00 24.9 24.7 25.3 0 6640 18.5 18.16 19.11 22.66 -3.4 -5.8
2017-08-15 06:00:00 24.5 24.4 24.6 0 6668 18.2 18.06 18.53 25.48 -2.1 -3.8
2017-08-15 07:00:00 24.3 24.2 24.5 0 6756 19.34 18.69 20.23 21.76 -3.3 -5.3
2017-08-15 08:00:00 24.4 24.2 25.1 0 6766 21.13 20.4 21.6 16.5 -5.5 -9.4
2017-08-15 09:00:00 24.4 24.2 25.1 0 6884 22.54 21.73 23.26 12.32 -8.5 -11.6
2017-08-15 10:00:00 24.6 24.4 25.2 0 7010 24.02 23.23 24.88 8.65 -12.2 -15.8
2017-08-15 11:00:00 24.8 24.6 25.6 0 7236 25.65 24.94 26.72 5.32 -17.6 -26.7
2017-08-15 12:00:00 24.9 24.7 25.2 0 7158 27.41 26.89 27.71 4.32 0
2017-08-15 13:00:00 25.4 25.2 26.2 0 7088 27.94 27.43 28.26 2.41 -20.6 0
2017-08-15 14:00:00 26 25.7 26.3 0 7000 28.17 27.7 28.6 1.6 0
2017-08-15 15:00:00 26.6 26.4 27.4 0 6952 28.53 28.27 28.7 0.45 0
2017-08-15 16:00:00 27.1 26.9 27.9 0 6982 28.63 27.97 29.04 0 0 0
2017-08-15 17:00:00 27.4 27.4 27.6 0 6942 27.31 26.74 28.25 0.49 -5.5 0
2017-08-15 18:00:00 27.5 27.4 28.4 0 6864 27.01 26.45 27.37 2.75 -20.8 0
2017-08-15 19:00:00 27.3 27.3 27.4 0 6796 25.74 24.93 26.56 4.83 -18.4 -27.4
2017-08-15 20:00:00 27.1 26.9 27.3 0 6708 24.46 24.13 24.75 5.15 -18.7 -23.3
2017-08-15 21:00:00 26.8 26.8 27.1 0 6688 23.49 23.14 24 5.92 -17.5 -23.7
2017-08-15 22:00:00 26.6 26.5 26.7 0 6678 22.67 22.45 23.06 9.03 -12.5 -16.5
2017-08-15 23:00:00 26.4 26.2 27.1 0 6660 22.95 22.7 23.14 8.32 -13.4 -18.5
2017-08-16 00:00:00 26.1 26 26.2 0 6668 22.82 22.74 22.96 9.54 -11.7 -18.6
2017-08-16 01:00:00 25.9 25.8 26.2 0 6650 22.43 22.01 22.78 7.65 -14.8 -19.2
2017-08-16 02:00:00 25.8 25.6 26.5 0 6668 21.71 21.43 22.08 8.22 -14.3 -17.5
2017-08-16 03:00:00 25.5 25.4 26.2 0 6660 21.89 21.73 22.09 9.69 -12.3 -17.1
2017-08-16 04:00:00 25.4 25.3 26 0 6650 21.61 21.19 21.89 10.32 -11.9 -17.6
2017-08-16 05:00:00 25.1 25 25.3 0 6630 21.51 21.24 21.7 12.02 -9.6 -12.4
2017-08-16 06:00:00 25 24.9 25.1 0 6688 21.86 21.44 22.23 11.78 -9.6 -13.6
2017-08-16 07:00:00 24.9 24.8 25.1 0 7010 22.69 22.37 23.08 10.88 -9.9 -11.7
2017-08-16 08:00:00 24.7 24.6 24.9 0 7196 24.02 23.22 24.89 9.93 -10.2 -13.4
2017-08-16 09:00:00 24.8 24.6 25 0 7304 25.56 24.85 26.07 6.76 -14.2 -16.7
2017-08-16 10:00:00 25.1 24.9 25.7 0 7118 26.88 26.26 27.33 6.15 -14.4 -18.5
2017-08-16 11:00:00 25.3 25.2 25.5 0 7108 27.07 26.68 27.42 4.68 -18.1 -21.8
2017-08-16 12:00:00 25.7 25.5 25.9 0 7108 27.13 26.62 27.88 5 -17.9 -33.5
2017-08-16 13:00:00 26.1 25.8 26.7 0 7284 28.74 27.95 30.59 2.51 -14.1 0
2017-08-16 14:00:00 26.3 26.2 26.7 0 7020 30.85 30.19 31.51 0.27 0 0
2017-08-16 15:00:00 27 26.6 27.9 0 6952 31.36 30.92 31.63 0.05 0 0
2017-08-16 16:00:00 27.5 27.2 28.3 0 6914 31.78 31.08 32.38 0 0 0
2017-08-16 17:00:00 27.9 27.6 28.8 0 6894 31.16 30.68 31.63 0.07 0 0
2017-08-16 18:00:00 28 27.9 28.2 0 6864 30.44 30.2 30.72 0.03 0 0
2017-08-16 19:00:00 28 27.9 28.6 0 6806 28.75 27.28 30.09 1.1 -14.4 0